Andes — 5BFM3 — position and weather

sailwx.info

Track history (hours):
 
Tides and Currents Weather Stations Pressure Air Temp Water Temp Dewpoint Dewpoint Depression Visibility Wind Speed Wind Dir Waves Ship Positions

Andes

Last reported at 2017-Feb-16 21:34 UTC. Time now 2017-Feb-26 14:35 UTC.
Position S 00°31' W 048°02'.
Warning: this ship's position is 9 days out of date.

Length 182 m; draft 7.6 m.

Type: Ship. MMSI: 209394000.

Date/timePositionNaut miles runAvg speedWind from/ knotsBaromVisibWave heightAir tempDewpointWater temp
2017-Feb-16 21:34S 00°31' W 048°02'4714.9
2017-Feb-16 18:22S 01°10' W 048°30'1113.0
2017-Feb-16 17:33S 01°20' W 048°29'4 3.9
2017-Feb-16 16:32S 01°24' W 048°30'0 0.0
2017-Feb-16 15:32S 01°24' W 048°30'0 0.0
2017-Feb-16 14:32S 01°24' W 048°30'0 0.0
2017-Feb-16 13:32S 01°24' W 048°30'0 0.0
2017-Feb-16 12:32S 01°24' W 048°30'0 0.0
2017-Feb-16 11:32S 01°24' W 048°30'0 0.0
2017-Feb-16 10:32S 01°24' W 048°30'0 0.0
2017-Feb-16 09:32S 01°24' W 048°30'0 0.0
2017-Feb-16 08:32S 01°24' W 048°30'0 0.0
2017-Feb-16 07:32S 01°24' W 048°30'0 0.0
2017-Feb-16 06:32S 01°24' W 048°30'0 0.0
2017-Feb-16 05:32S 01°24' W 048°30'0 0.0
2017-Feb-16 04:32S 01°24' W 048°30'0 0.0
2017-Feb-16 03:32S 01°24' W 048°30'0 0.0
2017-Feb-16 02:32S 01°24' W 048°30'0 0.0
2017-Feb-16 01:29S 01°24' W 048°30'0 0.0
2017-Feb-16 00:33S 01°24' W 048°30'0 0.0
2017-Feb-15 23:32S 01°24' W 048°30'0 0.0
2017-Feb-15 22:32S 01°24' W 048°30'0 0.0
2017-Feb-15 21:32S 01°24' W 048°30'0 0.0
2017-Feb-15 20:32S 01°24' W 048°30'0 0.0
2017-Feb-15 19:32S 01°24' W 048°30'0 0.0
2017-Feb-15 18:29S 01°24' W 048°30'0 0.0
2017-Feb-15 17:32S 01°24' W 048°30'1 0.5
2017-Feb-15 16:31S 01°24' W 048°30'2 1.6
2017-Feb-15 15:32S 01°25' W 048°31'0 0.1
2017-Feb-15 14:32S 01°25' W 048°31'0 0.1
2017-Feb-15 13:32S 01°25' W 048°31'0 0.0
2017-Feb-15 12:32S 01°25' W 048°31'0 0.0
2017-Feb-15 11:32S 01°25' W 048°31'0 0.0
2017-Feb-15 10:32S 01°25' W 048°31'0 0.0
2017-Feb-15 09:32S 01°25' W 048°31'0 0.0
2017-Feb-15 08:25S 01°25' W 048°31'0 0.0
2017-Feb-15 07:31S 01°25' W 048°31'0 0.2
2017-Feb-15 06:29S 01°25' W 048°31'0 0.0
2017-Feb-15 05:32S 01°25' W 048°31'0 0.0
2017-Feb-15 03:28S 01°25' W 048°31'0 0.0
2017-Feb-15 02:32S 01°25' W 048°31'0 0.2
2017-Feb-15 01:32S 01°25' W 048°31'0 0.0
2017-Feb-15 00:32S 01°25' W 048°31'0 0.0
2017-Feb-14 23:32S 01°25' W 048°31'0 0.0
2017-Feb-14 22:32S 01°25' W 048°31'0 0.0
2017-Feb-14 21:32S 01°25' W 048°31'0 0.0
2017-Feb-14 20:32S 01°25' W 048°31'0 0.0
2017-Feb-14 19:32S 01°25' W 048°31'0 0.2
2017-Feb-14 18:32S 01°25' W 048°31'0 0.0
2017-Feb-14 17:32S 01°25' W 048°31'0 0.1
2017-Feb-14 16:32S 01°25' W 048°31'5 5.4
2017-Feb-14 15:33S 01°20' W 048°29'1514.7
2017-Feb-14 14:33S 01°06' W 048°28'57 4.8
2017-Feb-14 02:29S 00°26' W 047°47'0 0.1
2017-Feb-14 01:15S 00°26' W 047°47'0 0.0
2017-Feb-14 00:33S 00°26' W 047°47'3 3.3
2017-Feb-13 23:33S 00°25' W 047°44'1313.4
2017-Feb-13 22:33S 00°20' W 047°31'232 6.4
2017-Feb-12 10:15S 02°35' W 044°22'0 0.0
2017-Feb-12 09:31S 02°35' W 044°22'0 0.0
2017-Feb-12 07:31S 02°35' W 044°22'0 0.0
2017-Feb-12 05:28S 02°35' W 044°22'0 0.0
2017-Feb-12 04:19S 02°35' W 044°22'0 0.0
2017-Feb-12 03:24S 02°35' W 044°22'0 0.0
2017-Feb-12 02:30S 02°35' W 044°22'0 0.0
2017-Feb-12 01:33S 02°35' W 044°22'0 0.0
2017-Feb-12 00:24S 02°35' W 044°22'0 0.0
2017-Feb-11 23:30S 02°35' W 044°22'0 0.0
2017-Feb-11 22:27S 02°35' W 044°22'0 0.0
2017-Feb-11 21:33S 02°35' W 044°22'0 0.0
2017-Feb-11 20:30S 02°35' W 044°22'0 0.0
2017-Feb-11 19:24S 02°35' W 044°22'0 0.0
2017-Feb-11 18:33S 02°35' W 044°22'0 0.0
2017-Feb-11 17:33S 02°35' W 044°22'0 0.0
2017-Feb-11 16:30S 02°35' W 044°22'0 0.0
2017-Feb-11 15:30S 02°35' W 044°22'0 0.0
2017-Feb-11 14:33S 02°35' W 044°22'0 0.0
2017-Feb-11 13:33S 02°35' W 044°22'0 0.0
2017-Feb-11 12:31S 02°35' W 044°22'0 0.0
2017-Feb-11 11:33S 02°35' W 044°22'0 0.0
2017-Feb-11 10:27S 02°35' W 044°22'0 0.0
2017-Feb-11 09:33S 02°35' W 044°22'0 0.0
2017-Feb-11 08:12S 02°35' W 044°22'0 0.0
2017-Feb-11 07:33S 02°35' W 044°22'0 0.0
2017-Feb-11 06:33S 02°35' W 044°22'0 0.0
2017-Feb-11 05:33S 02°35' W 044°22'0 0.0
2017-Feb-11 04:33S 02°35' W 044°22'0 0.0
2017-Feb-11 03:21S 02°35' W 044°22'0 0.0
2017-Feb-11 02:30S 02°35' W 044°22'0 0.0
2017-Feb-10 23:30S 02°35' W 044°22'0 0.0
2017-Feb-10 19:15S 02°35' W 044°22'0 0.0
2017-Feb-10 18:27S 02°35' W 044°22'0 0.0
2017-Feb-10 12:27S 02°35' W 044°22'0 0.0
2017-Feb-10 11:27S 02°35' W 044°22'0 0.0
2017-Feb-10 10:33S 02°35' W 044°22'0 0.0
2017-Feb-10 09:31S 02°35' W 044°22'0 0.0
2017-Feb-10 06:31S 02°35' W 044°22'0 0.0
2017-Feb-10 05:22S 02°35' W 044°22'1 1.7
2017-Feb-10 04:33S 02°33' W 044°23'8 7.8
2017-Feb-10 03:33S 02°26' W 044°21'3 3.3
2017-Feb-10 02:31S 02°22' W 044°21'0 0.0
2017-Feb-10 01:25S 02°22' W 044°21'0 0.0
2017-Feb-10 00:28S 02°22' W 044°21'0 0.1
2017-Feb-09 22:07S 02°23' W 044°21'0 0.0
2017-Feb-09 21:33S 02°23' W 044°21'0 0.0
2017-Feb-09 20:33S 02°23' W 044°21'0 0.0
2017-Feb-09 19:33S 02°23' W 044°21'0 0.0
2017-Feb-09 18:33S 02°23' W 044°21'0 0.0
2017-Feb-09 17:33S 02°23' W 044°21'0 0.0
2017-Feb-09 16:33S 02°23' W 044°21'0 0.2
2017-Feb-09 15:33S 02°23' W 044°21'0 0.1
2017-Feb-09 14:33S 02°23' W 044°21'0 0.0
2017-Feb-09 13:33S 02°23' W 044°21'0 0.0
2017-Feb-09 12:27S 02°23' W 044°21'0 0.0
2017-Feb-09 11:33S 02°23' W 044°21'0 0.1
2017-Feb-09 10:31S 02°23' W 044°21'0 0.2
2017-Feb-09 09:28S 02°23' W 044°21'0 0.0
2017-Feb-09 08:33S 02°23' W 044°21'0 0.0
2017-Feb-09 07:25S 02°23' W 044°21'0 0.0
2017-Feb-09 06:33S 02°23' W 044°21'0 0.1
2017-Feb-09 05:30S 02°23' W 044°21'0 0.1
2017-Feb-09 02:28S 02°23' W 044°21'0 0.1
2017-Feb-09 01:33S 02°22' W 044°21'0 0.1
2017-Feb-09 00:33S 02°23' W 044°21'0 0.0
2017-Feb-08 23:30S 02°23' W 044°21'0 0.0
2017-Feb-08 22:33S 02°23' W 044°21'0 0.2
2017-Feb-08 21:33S 02°23' W 044°21'0 0.1
2017-Feb-08 20:33S 02°23' W 044°21'0 0.0
2017-Feb-08 19:33S 02°23' W 044°21'0 0.0
2017-Feb-08 18:33S 02°23' W 044°21'0 0.0
2017-Feb-08 17:33S 02°23' W 044°21'0 0.0
2017-Feb-08 16:33S 02°23' W 044°21'0 0.0
2017-Feb-08 15:33S 02°23' W 044°21'0 0.2
2017-Feb-08 14:12S 02°23' W 044°21'0 0.0
2017-Feb-08 13:33S 02°23' W 044°21'0 0.0
2017-Feb-08 12:33S 02°23' W 044°21'0 0.0
2017-Feb-08 11:33S 02°23' W 044°21'0 0.0
2017-Feb-08 10:33S 02°23' W 044°21'0 0.1
2017-Feb-08 09:33S 02°23' W 044°21'0 0.2
2017-Feb-08 08:30S 02°23' W 044°21'0 0.0
2017-Feb-08 07:33S 02°23' W 044°21'0 0.0
2017-Feb-08 06:33S 02°23' W 044°21'0 0.0
2017-Feb-08 05:33S 02°23' W 044°21'0 0.0
2017-Feb-08 04:33S 02°23' W 044°21'0 0.0
2017-Feb-08 03:33S 02°23' W 044°21'0 0.0
2017-Feb-08 02:33S 02°23' W 044°21'0 0.2
2017-Feb-08 01:33S 02°23' W 044°21'0 0.0
2017-Feb-08 00:33S 02°23' W 044°21'0 0.0
2017-Feb-07 23:33S 02°23' W 044°21'0 0.0
2017-Feb-07 22:33S 02°23' W 044°21'0 0.0
2017-Feb-07 21:33S 02°23' W 044°21'0 0.2
2017-Feb-07 20:33S 02°23' W 044°21'0 0.1
2017-Feb-07 19:30S 02°23' W 044°21'0 0.0
2017-Feb-07 18:30S 02°23' W 044°21'0 0.0
2017-Feb-07 17:27S 02°23' W 044°21'0 0.0
2017-Feb-07 16:33S 02°23' W 044°21'0 0.0
2017-Feb-07 15:33S 02°23' W 044°21'0 0.0
2017-Feb-07 14:33S 02°23' W 044°21'0 0.1
2017-Feb-07 13:33S 02°23' W 044°21'0 0.1
2017-Feb-07 12:15S 02°23' W 044°21'0 0.0
2017-Feb-07 11:33S 02°23' W 044°21'0 0.0
2017-Feb-07 10:33S 02°23' W 044°21'0 0.0
2017-Feb-07 09:33S 02°23' W 044°21'0 0.1
2017-Feb-07 08:33S 02°23' W 044°21'0 0.2
2017-Feb-07 07:33S 02°23' W 044°21'3 2.8
2017-Feb-07 06:34S 02°21' W 044°19'1312.8
2017-Feb-07 05:33S 02°11' W 044°11'  
Track history (hours):
 
Tides and Currents Weather Stations Pressure Air Temp Water Temp Dewpoint Dewpoint Depression Visibility Wind Speed Wind Dir Waves Ship Positions

Andes

Last reported at 2017-Feb-16 21:34 UTC. Time now 2017-Feb-26 14:35 UTC.
Position S 00°31' W 048°02'.
Warning: this ship's position is 9 days out of date.

Length 182 m; draft 7.6 m.

Type: Ship. MMSI: 209394000.

Date/timePositionNaut miles runAvg speedWind from/ knotsBaromVisibWave heightAir tempDewpointWater temp
2017-Feb-16 21:34S 00°31' W 048°02'4714.9
2017-Feb-16 18:22S 01°10' W 048°30'1113.0
2017-Feb-16 17:33S 01°20' W 048°29'4 3.9
2017-Feb-16 16:32S 01°24' W 048°30'0 0.0
2017-Feb-16 15:32S 01°24' W 048°30'0 0.0
2017-Feb-16 14:32S 01°24' W 048°30'0 0.0
2017-Feb-16 13:32S 01°24' W 048°30'0 0.0
2017-Feb-16 12:32S 01°24' W 048°30'0 0.0
2017-Feb-16 11:32S 01°24' W 048°30'0 0.0
2017-Feb-16 10:32S 01°24' W 048°30'0 0.0
2017-Feb-16 09:32S 01°24' W 048°30'0 0.0
2017-Feb-16 08:32S 01°24' W 048°30'0 0.0
2017-Feb-16 07:32S 01°24' W 048°30'0 0.0
2017-Feb-16 06:32S 01°24' W 048°30'0 0.0
2017-Feb-16 05:32S 01°24' W 048°30'0 0.0
2017-Feb-16 04:32S 01°24' W 048°30'0 0.0
2017-Feb-16 03:32S 01°24' W 048°30'0 0.0
2017-Feb-16 02:32S 01°24' W 048°30'0 0.0
2017-Feb-16 01:29S 01°24' W 048°30'0 0.0
2017-Feb-16 00:33S 01°24' W 048°30'0 0.0
2017-Feb-15 23:32S 01°24' W 048°30'0 0.0
2017-Feb-15 22:32S 01°24' W 048°30'0 0.0
2017-Feb-15 21:32S 01°24' W 048°30'0 0.0
2017-Feb-15 20:32S 01°24' W 048°30'0 0.0
2017-Feb-15 19:32S 01°24' W 048°30'0 0.0
2017-Feb-15 18:29S 01°24' W 048°30'0 0.0
2017-Feb-15 17:32S 01°24' W 048°30'1 0.5
2017-Feb-15 16:31S 01°24' W 048°30'2 1.6
2017-Feb-15 15:32S 01°25' W 048°31'0 0.1
2017-Feb-15 14:32S 01°25' W 048°31'0 0.1
2017-Feb-15 13:32S 01°25' W 048°31'0 0.0
2017-Feb-15 12:32S 01°25' W 048°31'0 0.0
2017-Feb-15 11:32S 01°25' W 048°31'0 0.0
2017-Feb-15 10:32S 01°25' W 048°31'0 0.0
2017-Feb-15 09:32S 01°25' W 048°31'0 0.0
2017-Feb-15 08:25S 01°25' W 048°31'0 0.0
2017-Feb-15 07:31S 01°25' W 048°31'0 0.2
2017-Feb-15 06:29S 01°25' W 048°31'0 0.0
2017-Feb-15 05:32S 01°25' W 048°31'0 0.0
2017-Feb-15 03:28S 01°25' W 048°31'0 0.0
2017-Feb-15 02:32S 01°25' W 048°31'0 0.2
2017-Feb-15 01:32S 01°25' W 048°31'0 0.0
2017-Feb-15 00:32S 01°25' W 048°31'0 0.0
2017-Feb-14 23:32S 01°25' W 048°31'0 0.0
2017-Feb-14 22:32S 01°25' W 048°31'0 0.0
2017-Feb-14 21:32S 01°25' W 048°31'0 0.0
2017-Feb-14 20:32S 01°25' W 048°31'0 0.0
2017-Feb-14 19:32S 01°25' W 048°31'0 0.2
2017-Feb-14 18:32S 01°25' W 048°31'0 0.0
2017-Feb-14 17:32S 01°25' W 048°31'0 0.1
2017-Feb-14 16:32S 01°25' W 048°31'5 5.4
2017-Feb-14 15:33S 01°20' W 048°29'1514.7
2017-Feb-14 14:33S 01°06' W 048°28'57 4.8
2017-Feb-14 02:29S 00°26' W 047°47'0 0.1
2017-Feb-14 01:15S 00°26' W 047°47'0 0.0
2017-Feb-14 00:33S 00°26' W 047°47'3 3.3
2017-Feb-13 23:33S 00°25' W 047°44'1313.4
2017-Feb-13 22:33S 00°20' W 047°31'232 6.4
2017-Feb-12 10:15S 02°35' W 044°22'0 0.0
2017-Feb-12 09:31S 02°35' W 044°22'0 0.0
2017-Feb-12 07:31S 02°35' W 044°22'0 0.0
2017-Feb-12 05:28S 02°35' W 044°22'0 0.0
2017-Feb-12 04:19S 02°35' W 044°22'0 0.0
2017-Feb-12 03:24S 02°35' W 044°22'0 0.0
2017-Feb-12 02:30S 02°35' W 044°22'0 0.0
2017-Feb-12 01:33S 02°35' W 044°22'0 0.0
2017-Feb-12 00:24S 02°35' W 044°22'0 0.0
2017-Feb-11 23:30S 02°35' W 044°22'0 0.0
2017-Feb-11 22:27S 02°35' W 044°22'0 0.0
2017-Feb-11 21:33S 02°35' W 044°22'0 0.0
2017-Feb-11 20:30S 02°35' W 044°22'0 0.0
2017-Feb-11 19:24S 02°35' W 044°22'0 0.0
2017-Feb-11 18:33S 02°35' W 044°22'0 0.0
2017-Feb-11 17:33S 02°35' W 044°22'0 0.0
2017-Feb-11 16:30S 02°35' W 044°22'0 0.0
2017-Feb-11 15:30S 02°35' W 044°22'0 0.0
2017-Feb-11 14:33S 02°35' W 044°22'0 0.0
2017-Feb-11 13:33S 02°35' W 044°22'0 0.0
2017-Feb-11 12:31S 02°35' W 044°22'0 0.0
2017-Feb-11 11:33S 02°35' W 044°22'0 0.0
2017-Feb-11 10:27S 02°35' W 044°22'0 0.0
2017-Feb-11 09:33S 02°35' W 044°22'0 0.0
2017-Feb-11 08:12S 02°35' W 044°22'0 0.0
2017-Feb-11 07:33S 02°35' W 044°22'0 0.0
2017-Feb-11 06:33S 02°35' W 044°22'0 0.0
2017-Feb-11 05:33S 02°35' W 044°22'0 0.0
2017-Feb-11 04:33S 02°35' W 044°22'0 0.0
2017-Feb-11 03:21S 02°35' W 044°22'0 0.0
2017-Feb-11 02:30S 02°35' W 044°22'0 0.0
2017-Feb-10 23:30S 02°35' W 044°22'0 0.0
2017-Feb-10 19:15S 02°35' W 044°22'0 0.0
2017-Feb-10 18:27S 02°35' W 044°22'0 0.0
2017-Feb-10 12:27S 02°35' W 044°22'0 0.0
2017-Feb-10 11:27S 02°35' W 044°22'0 0.0
2017-Feb-10 10:33S 02°35' W 044°22'0 0.0
2017-Feb-10 09:31S 02°35' W 044°22'0 0.0
2017-Feb-10 06:31S 02°35' W 044°22'0 0.0
2017-Feb-10 05:22S 02°35' W 044°22'1 1.7
2017-Feb-10 04:33S 02°33' W 044°23'8 7.8
2017-Feb-10 03:33S 02°26' W 044°21'3 3.3
2017-Feb-10 02:31S 02°22' W 044°21'0 0.0
2017-Feb-10 01:25S 02°22' W 044°21'0 0.0
2017-Feb-10 00:28S 02°22' W 044°21'0 0.1
2017-Feb-09 22:07S 02°23' W 044°21'0 0.0
2017-Feb-09 21:33S 02°23' W 044°21'0 0.0
2017-Feb-09 20:33S 02°23' W 044°21'0 0.0
2017-Feb-09 19:33S 02°23' W 044°21'0 0.0
2017-Feb-09 18:33S 02°23' W 044°21'0 0.0
2017-Feb-09 17:33S 02°23' W 044°21'0 0.0
2017-Feb-09 16:33S 02°23' W 044°21'0 0.2
2017-Feb-09 15:33S 02°23' W 044°21'0 0.1
2017-Feb-09 14:33S 02°23' W 044°21'0 0.0
2017-Feb-09 13:33S 02°23' W 044°21'0 0.0
2017-Feb-09 12:27S 02°23' W 044°21'0 0.0
2017-Feb-09 11:33S 02°23' W 044°21'0 0.1
2017-Feb-09 10:31S 02°23' W 044°21'0 0.2
2017-Feb-09 09:28S 02°23' W 044°21'0 0.0
2017-Feb-09 08:33S 02°23' W 044°21'0 0.0
2017-Feb-09 07:25S 02°23' W 044°21'0 0.0
2017-Feb-09 06:33S 02°23' W 044°21'0 0.1
2017-Feb-09 05:30S 02°23' W 044°21'0 0.1
2017-Feb-09 02:28S 02°23' W 044°21'0 0.1
2017-Feb-09 01:33S 02°22' W 044°21'0 0.1
2017-Feb-09 00:33S 02°23' W 044°21'0 0.0
2017-Feb-08 23:30S 02°23' W 044°21'0 0.0
2017-Feb-08 22:33S 02°23' W 044°21'0 0.2
2017-Feb-08 21:33S 02°23' W 044°21'0 0.1
2017-Feb-08 20:33S 02°23' W 044°21'0 0.0
2017-Feb-08 19:33S 02°23' W 044°21'0 0.0
2017-Feb-08 18:33S 02°23' W 044°21'0 0.0
2017-Feb-08 17:33S 02°23' W 044°21'0 0.0
2017-Feb-08 16:33S 02°23' W 044°21'0 0.0
2017-Feb-08 15:33S 02°23' W 044°21'0 0.2
2017-Feb-08 14:12S 02°23' W 044°21'0 0.0
2017-Feb-08 13:33S 02°23' W 044°21'0 0.0
2017-Feb-08 12:33S 02°23' W 044°21'0 0.0
2017-Feb-08 11:33S 02°23' W 044°21'0 0.0
2017-Feb-08 10:33S 02°23' W 044°21'0 0.1
2017-Feb-08 09:33S 02°23' W 044°21'0 0.2
2017-Feb-08 08:30S 02°23' W 044°21'0 0.0
2017-Feb-08 07:33S 02°23' W 044°21'0 0.0
2017-Feb-08 06:33S 02°23' W 044°21'0 0.0
2017-Feb-08 05:33S 02°23' W 044°21'0 0.0
2017-Feb-08 04:33S 02°23' W 044°21'0 0.0
2017-Feb-08 03:33S 02°23' W 044°21'0 0.0
2017-Feb-08 02:33S 02°23' W 044°21'0 0.2
2017-Feb-08 01:33S 02°23' W 044°21'0 0.0
2017-Feb-08 00:33S 02°23' W 044°21'0 0.0
2017-Feb-07 23:33S 02°23' W 044°21'0 0.0
2017-Feb-07 22:33S 02°23' W 044°21'0 0.0
2017-Feb-07 21:33S 02°23' W 044°21'0 0.2
2017-Feb-07 20:33S 02°23' W 044°21'0 0.1
2017-Feb-07 19:30S 02°23' W 044°21'0 0.0
2017-Feb-07 18:30S 02°23' W 044°21'0 0.0
2017-Feb-07 17:27S 02°23' W 044°21'0 0.0
2017-Feb-07 16:33S 02°23' W 044°21'0 0.0
2017-Feb-07 15:33S 02°23' W 044°21'0 0.0
2017-Feb-07 14:33S 02°23' W 044°21'0 0.1
2017-Feb-07 13:33S 02°23' W 044°21'0 0.1
2017-Feb-07 12:15S 02°23' W 044°21'0 0.0
2017-Feb-07 11:33S 02°23' W 044°21'0 0.0
2017-Feb-07 10:33S 02°23' W 044°21'0 0.0
2017-Feb-07 09:33S 02°23' W 044°21'0 0.1
2017-Feb-07 08:33S 02°23' W 044°21'0 0.2
2017-Feb-07 07:33S 02°23' W 044°21'3 2.8
2017-Feb-07 06:34S 02°21' W 044°19'1312.8
2017-Feb-07 05:33S 02°11' W 044°11'  

Dump ship's entire track history